sensor_id;sensor_type;location;lat;lon;timestamp;P1;durP1;ratioP1;P2;durP2;ratioP2
69854;SDS011;57146;48.140;16.304;2023-12-28T00:01:57;14.70;;;6.07;;
69854;SDS011;57146;48.140;16.304;2023-12-28T00:04:24;17.00;;;5.95;;
69854;SDS011;57146;48.140;16.304;2023-12-28T00:06:51;15.80;;;6.13;;
69854;SDS011;57146;48.140;16.304;2023-12-28T00:09:18;16.43;;;5.77;;
69854;SDS011;57146;48.140;16.304;2023-12-28T00:11:45;17.98;;;6.80;;
69854;SDS011;57146;48.140;16.304;2023-12-28T00:14:12;14.23;;;5.90;;
69854;SDS011;57146;48.140;16.304;2023-12-28T00:16:39;17.30;;;5.85;;
69854;SDS011;57146;48.140;16.304;2023-12-28T00:19:05;16.17;;;6.30;;
69854;SDS011;57146;48.140;16.304;2023-12-28T00:21:32;16.93;;;6.30;;
69854;SDS011;57146;48.140;16.304;2023-12-28T00:23:59;14.23;;;5.90;;
69854;SDS011;57146;48.140;16.304;2023-12-28T00:26:26;16.08;;;6.30;;
69854;SDS011;57146;48.140;16.304;2023-12-28T00:29:01;16.52;;;6.35;;
69854;SDS011;57146;48.140;16.304;2023-12-28T00:31:28;15.35;;;6.32;;
69854;SDS011;57146;48.140;16.304;2023-12-28T00:33:55;15.23;;;6.17;;
69854;SDS011;57146;48.140;16.304;2023-12-28T00:36:22;15.70;;;6.10;;
69854;SDS011;57146;48.140;16.304;2023-12-28T00:38:49;15.98;;;6.13;;
69854;SDS011;57146;48.140;16.304;2023-12-28T00:41:17;15.07;;;6.20;;
69854;SDS011;57146;48.140;16.304;2023-12-28T00:43:43;15.13;;;6.53;;
69854;SDS011;57146;48.140;16.304;2023-12-28T00:46:10;18.13;;;6.57;;
69854;SDS011;57146;48.140;16.304;2023-12-28T00:48:37;15.30;;;6.57;;
69854;SDS011;57146;48.140;16.304;2023-12-28T00:51:05;16.90;;;7.00;;
69854;SDS011;57146;48.140;16.304;2023-12-28T00:53:31;17.20;;;7.00;;
69854;SDS011;57146;48.140;16.304;2023-12-28T00:55:58;17.40;;;7.18;;
69854;SDS011;57146;48.140;16.304;2023-12-28T00:58:25;15.80;;;6.67;;
69854;SDS011;57146;48.140;16.304;2023-12-28T01:00:52;16.70;;;6.30;;
69854;SDS011;57146;48.140;16.304;2023-12-28T01:03:19;17.00;;;6.40;;
69854;SDS011;57146;48.140;16.304;2023-12-28T01:05:46;17.30;;;6.57;;
69854;SDS011;57146;48.140;16.304;2023-12-28T01:08:13;19.10;;;6.45;;
69854;SDS011;57146;48.140;16.304;2023-12-28T01:10:40;13.47;;;6.07;;
69854;SDS011;57146;48.140;16.304;2023-12-28T01:13:10;16.45;;;6.43;;
69854;SDS011;57146;48.140;16.304;2023-12-28T01:15:37;16.75;;;6.35;;
69854;SDS011;57146;48.140;16.304;2023-12-28T01:18:04;16.13;;;6.53;;
69854;SDS011;57146;48.140;16.304;2023-12-28T01:20:31;17.48;;;6.70;;
69854;SDS011;57146;48.140;16.304;2023-12-28T01:22:57;16.53;;;6.80;;
69854;SDS011;57146;48.140;16.304;2023-12-28T01:25:24;16.85;;;6.90;;
69854;SDS011;57146;48.140;16.304;2023-12-28T01:27:51;15.70;;;6.68;;
69854;SDS011;57146;48.140;16.304;2023-12-28T01:30:19;16.67;;;6.82;;
69854;SDS011;57146;48.140;16.304;2023-12-28T01:32:46;15.80;;;6.53;;
69854;SDS011;57146;48.140;16.304;2023-12-28T01:35:13;18.67;;;7.47;;
69854;SDS011;57146;48.140;16.304;2023-12-28T01:37:40;18.98;;;7.05;;
69854;SDS011;57146;48.140;16.304;2023-12-28T01:40:07;21.10;;;7.40;;
69854;SDS011;57146;48.140;16.304;2023-12-28T01:42:34;19.80;;;8.05;;
69854;SDS011;57146;48.140;16.304;2023-12-28T01:45:01;20.27;;;7.25;;
69854;SDS011;57146;48.140;16.304;2023-12-28T01:47:29;20.37;;;7.90;;
69854;SDS011;57146;48.140;16.304;2023-12-28T01:49:57;22.13;;;8.40;;
69854;SDS011;57146;48.140;16.304;2023-12-28T01:52:26;19.05;;;7.75;;
69854;SDS011;57146;48.140;16.304;2023-12-28T01:54:54;17.98;;;7.38;;
69854;SDS011;57146;48.140;16.304;2023-12-28T01:57:22;19.80;;;8.13;;
69854;SDS011;57146;48.140;16.304;2023-12-28T01:59:49;21.50;;;8.03;;
69854;SDS011;57146;48.140;16.304;2023-12-28T02:02:17;19.02;;;8.07;;
69854;SDS011;57146;48.140;16.304;2023-12-28T02:04:44;24.00;;;8.60;;
69854;SDS011;57146;48.140;16.304;2023-12-28T02:07:12;22.20;;;8.60;;
69854;SDS011;57146;48.140;16.304;2023-12-28T02:09:40;25.95;;;8.85;;
69854;SDS011;57146;48.140;16.304;2023-12-28T02:12:08;24.27;;;8.93;;
69854;SDS011;57146;48.140;16.304;2023-12-28T02:14:34;23.77;;;8.50;;
69854;SDS011;57146;48.140;16.304;2023-12-28T02:19:49;32.45;;;9.90;;
69854;SDS011;57146;48.140;16.304;2023-12-28T02:22:19;29.73;;;10.02;;
69854;SDS011;57146;48.140;16.304;2023-12-28T02:25:09;33.83;;;11.13;;
69854;SDS011;57146;48.140;16.304;2023-12-28T02:27:46;28.63;;;10.55;;
69854;SDS011;57146;48.140;16.304;2023-12-28T02:30:16;25.30;;;9.20;;
69854;SDS011;57146;48.140;16.304;2023-12-28T02:35:56;29.92;;;10.38;;
69854;SDS011;57146;48.140;16.304;2023-12-28T02:38:19;32.10;;;10.07;;
69854;SDS011;57146;48.140;16.304;2023-12-28T02:40:48;29.85;;;10.43;;
69854;SDS011;57146;48.140;16.304;2023-12-28T02:43:16;35.42;;;11.60;;
69854;SDS011;57146;48.140;16.304;2023-12-28T02:45:43;38.15;;;10.73;;
69854;SDS011;57146;48.140;16.304;2023-12-28T02:48:10;33.63;;;10.35;;
69854;SDS011;57146;48.140;16.304;2023-12-28T02:50:37;32.23;;;11.27;;
69854;SDS011;57146;48.140;16.304;2023-12-28T02:53:04;32.08;;;11.70;;
69854;SDS011;57146;48.140;16.304;2023-12-28T02:55:31;30.55;;;11.10;;
69854;SDS011;57146;48.140;16.304;2023-12-28T02:57:58;32.65;;;11.35;;
69854;SDS011;57146;48.140;16.304;2023-12-28T03:00:25;32.10;;;11.82;;
69854;SDS011;57146;48.140;16.304;2023-12-28T03:02:54;31.77;;;12.20;;
69854;SDS011;57146;48.140;16.304;2023-12-28T03:05:20;69.45;;;14.20;;
69854;SDS011;57146;48.140;16.304;2023-12-28T03:07:48;87.57;;;15.13;;
69854;SDS011;57146;48.140;16.304;2023-12-28T03:10:15;58.88;;;15.45;;
69854;SDS011;57146;48.140;16.304;2023-12-28T03:12:43;37.50;;;13.27;;
69854;SDS011;57146;48.140;16.304;2023-12-28T03:15:10;59.17;;;12.93;;
69854;SDS011;57146;48.140;16.304;2023-12-28T03:17:37;37.00;;;13.07;;
69854;SDS011;57146;48.140;16.304;2023-12-28T03:20:04;48.20;;;14.00;;
69854;SDS011;57146;48.140;16.304;2023-12-28T03:22:32;36.20;;;14.27;;
69854;SDS011;57146;48.140;16.304;2023-12-28T03:24:59;111.22;;;15.55;;
69854;SDS011;57146;48.140;16.304;2023-12-28T03:27:26;64.47;;;13.33;;
69854;SDS011;57146;48.140;16.304;2023-12-28T03:29:54;72.47;;;13.60;;
69854;SDS011;57146;48.140;16.304;2023-12-28T03:32:21;38.25;;;13.70;;
69854;SDS011;57146;48.140;16.304;2023-12-28T03:34:49;53.45;;;14.65;;
69854;SDS011;57146;48.140;16.304;2023-12-28T03:37:16;42.30;;;13.57;;
69854;SDS011;57146;48.140;16.304;2023-12-28T03:39:43;39.63;;;14.00;;
69854;SDS011;57146;48.140;16.304;2023-12-28T03:42:10;49.65;;;14.70;;
69854;SDS011;57146;48.140;16.304;2023-12-28T03:44:37;72.57;;;14.77;;
69854;SDS011;57146;48.140;16.304;2023-12-28T03:47:03;64.45;;;12.77;;
69854;SDS011;57146;48.140;16.304;2023-12-28T03:49:30;79.05;;;13.45;;
69854;SDS011;57146;48.140;16.304;2023-12-28T03:51:57;47.47;;;13.17;;
69854;SDS011;57146;48.140;16.304;2023-12-28T03:54:24;49.60;;;13.88;;
69854;SDS011;57146;48.140;16.304;2023-12-28T03:56:51;38.08;;;13.25;;
69854;SDS011;57146;48.140;16.304;2023-12-28T03:59:18;106.25;;;15.52;;
69854;SDS011;57146;48.140;16.304;2023-12-28T04:01:45;44.58;;;13.13;;
69854;SDS011;57146;48.140;16.304;2023-12-28T04:04:12;39.83;;;12.20;;
69854;SDS011;57146;48.140;16.304;2023-12-28T04:06:39;86.15;;;13.73;;
69854;SDS011;57146;48.140;16.304;2023-12-28T04:09:06;133.50;;;14.60;;
69854;SDS011;57146;48.140;16.304;2023-12-28T04:11:33;41.10;;;12.70;;
69854;SDS011;57146;48.140;16.304;2023-12-28T04:14:00;54.00;;;13.05;;
69854;SDS011;57146;48.140;16.304;2023-12-28T04:16:27;67.37;;;13.57;;
69854;SDS011;57146;48.140;16.304;2023-12-28T04:18:54;43.08;;;12.80;;
69854;SDS011;57146;48.140;16.304;2023-12-28T04:21:21;76.85;;;13.45;;
69854;SDS011;57146;48.140;16.304;2023-12-28T04:23:48;67.40;;;12.68;;
69854;SDS011;57146;48.140;16.304;2023-12-28T04:26:17;40.80;;;12.30;;
69854;SDS011;57146;48.140;16.304;2023-12-28T04:28:45;32.47;;;11.87;;
69854;SDS011;57146;48.140;16.304;2023-12-28T04:31:12;57.35;;;12.43;;
69854;SDS011;57146;48.140;16.304;2023-12-28T04:33:40;36.38;;;12.20;;
69854;SDS011;57146;48.140;16.304;2023-12-28T04:36:07;41.00;;;12.57;;
69854;SDS011;57146;48.140;16.304;2023-12-28T04:38:34;39.00;;;12.82;;
69854;SDS011;57146;48.140;16.304;2023-12-28T04:41:02;46.23;;;12.87;;
69854;SDS011;57146;48.140;16.304;2023-12-28T04:43:29;37.92;;;12.18;;
69854;SDS011;57146;48.140;16.304;2023-12-28T04:45:56;39.33;;;12.20;;
69854;SDS011;57146;48.140;16.304;2023-12-28T04:48:24;48.33;;;12.00;;
69854;SDS011;57146;48.140;16.304;2023-12-28T04:50:52;39.15;;;12.25;;
69854;SDS011;57146;48.140;16.304;2023-12-28T04:53:19;32.03;;;11.53;;
69854;SDS011;57146;48.140;16.304;2023-12-28T04:55:47;35.25;;;11.20;;
69854;SDS011;57146;48.140;16.304;2023-12-28T04:58:14;35.53;;;11.30;;
69854;SDS011;57146;48.140;16.304;2023-12-28T05:00:41;40.55;;;12.30;;
69854;SDS011;57146;48.140;16.304;2023-12-28T05:03:09;41.58;;;12.45;;
69854;SDS011;57146;48.140;16.304;2023-12-28T05:05:36;49.60;;;12.87;;
69854;SDS011;57146;48.140;16.304;2023-12-28T05:08:03;39.00;;;13.07;;
69854;SDS011;57146;48.140;16.304;2023-12-28T05:10:30;45.45;;;13.57;;
69854;SDS011;57146;48.140;16.304;2023-12-28T05:12:57;34.85;;;12.25;;
69854;SDS011;57146;48.140;16.304;2023-12-28T05:15:28;41.05;;;12.45;;
69854;SDS011;57146;48.140;16.304;2023-12-28T05:17:56;42.93;;;12.00;;
69854;SDS011;57146;48.140;16.304;2023-12-28T05:20:23;33.83;;;11.60;;
69854;SDS011;57146;48.140;16.304;2023-12-28T05:22:50;30.25;;;11.27;;
69854;SDS011;57146;48.140;16.304;2023-12-28T05:25:17;31.90;;;11.52;;
69854;SDS011;57146;48.140;16.304;2023-12-28T05:27:44;46.22;;;12.25;;
69854;SDS011;57146;48.140;16.304;2023-12-28T05:30:11;39.90;;;11.80;;
69854;SDS011;57146;48.140;16.304;2023-12-28T05:32:39;43.30;;;11.77;;
69854;SDS011;57146;48.140;16.304;2023-12-28T05:35:06;37.30;;;10.52;;
69854;SDS011;57146;48.140;16.304;2023-12-28T05:37:34;36.67;;;12.15;;
69854;SDS011;57146;48.140;16.304;2023-12-28T05:40:01;41.58;;;11.88;;
69854;SDS011;57146;48.140;16.304;2023-12-28T05:42:28;31.27;;;11.13;;
69854;SDS011;57146;48.140;16.304;2023-12-28T05:44:55;33.50;;;10.93;;
69854;SDS011;57146;48.140;16.304;2023-12-28T05:47:22;37.22;;;11.43;;
69854;SDS011;57146;48.140;16.304;2023-12-28T05:49:49;36.38;;;11.50;;
69854;SDS011;57146;48.140;16.304;2023-12-28T05:52:16;33.30;;;11.15;;
69854;SDS011;57146;48.140;16.304;2023-12-28T05:54:42;35.67;;;11.43;;
69854;SDS011;57146;48.140;16.304;2023-12-28T05:57:10;33.13;;;10.60;;
69854;SDS011;57146;48.140;16.304;2023-12-28T05:59:37;64.72;;;11.43;;
69854;SDS011;57146;48.140;16.304;2023-12-28T06:02:05;61.17;;;11.30;;
69854;SDS011;57146;48.140;16.304;2023-12-28T06:04:32;56.33;;;11.57;;
69854;SDS011;57146;48.140;16.304;2023-12-28T06:06:59;39.37;;;11.30;;
69854;SDS011;57146;48.140;16.304;2023-12-28T06:09:26;36.42;;;11.45;;
69854;SDS011;57146;48.140;16.304;2023-12-28T06:11:53;41.75;;;12.35;;
69854;SDS011;57146;48.140;16.304;2023-12-28T06:14:19;41.78;;;12.27;;
69854;SDS011;57146;48.140;16.304;2023-12-28T06:16:46;39.50;;;12.50;;
69854;SDS011;57146;48.140;16.304;2023-12-28T06:19:13;35.47;;;11.20;;
69854;SDS011;57146;48.140;16.304;2023-12-28T06:21:40;39.50;;;12.15;;
69854;SDS011;57146;48.140;16.304;2023-12-28T06:24:07;35.80;;;11.55;;
69854;SDS011;57146;48.140;16.304;2023-12-28T06:26:36;40.63;;;11.48;;
69854;SDS011;57146;48.140;16.304;2023-12-28T06:29:05;40.25;;;11.80;;
69854;SDS011;57146;48.140;16.304;2023-12-28T06:31:32;43.93;;;12.07;;
69854;SDS011;57146;48.140;16.304;2023-12-28T06:33:59;37.55;;;11.25;;
69854;SDS011;57146;48.140;16.304;2023-12-28T06:36:26;36.05;;;10.43;;
69854;SDS011;57146;48.140;16.304;2023-12-28T06:38:53;30.50;;;10.00;;
69854;SDS011;57146;48.140;16.304;2023-12-28T06:41:20;30.17;;;9.55;;
69854;SDS011;57146;48.140;16.304;2023-12-28T06:43:47;29.80;;;8.73;;
69854;SDS011;57146;48.140;16.304;2023-12-28T06:46:14;31.33;;;9.20;;
69854;SDS011;57146;48.140;16.304;2023-12-28T06:48:41;23.92;;;7.97;;
69854;SDS011;57146;48.140;16.304;2023-12-28T06:51:08;29.35;;;9.07;;
69854;SDS011;57146;48.140;16.304;2023-12-28T06:53:36;28.02;;;9.48;;
69854;SDS011;57146;48.140;16.304;2023-12-28T06:56:03;31.30;;;8.93;;
69854;SDS011;57146;48.140;16.304;2023-12-28T06:58:30;28.25;;;8.10;;
69854;SDS011;57146;48.140;16.304;2023-12-28T07:00:57;37.13;;;9.20;;
69854;SDS011;57146;48.140;16.304;2023-12-28T07:03:24;29.13;;;8.90;;
69854;SDS011;57146;48.140;16.304;2023-12-28T07:05:51;32.45;;;9.25;;
69854;SDS011;57146;48.140;16.304;2023-12-28T07:08:18;29.53;;;9.07;;
69854;SDS011;57146;48.140;16.304;2023-12-28T07:10:45;34.10;;;9.93;;
69854;SDS011;57146;48.140;16.304;2023-12-28T07:13:12;31.33;;;9.32;;
69854;SDS011;57146;48.140;16.304;2023-12-28T07:15:38;38.50;;;9.45;;
69854;SDS011;57146;48.140;16.304;2023-12-28T07:18:05;31.65;;;9.50;;
69854;SDS011;57146;48.140;16.304;2023-12-28T07:20:32;36.53;;;10.47;;
69854;SDS011;57146;48.140;16.304;2023-12-28T07:22:59;36.42;;;10.60;;
69854;SDS011;57146;48.140;16.304;2023-12-28T07:25:26;29.88;;;9.07;;
69854;SDS011;57146;48.140;16.304;2023-12-28T07:27:53;34.63;;;9.90;;
69854;SDS011;57146;48.140;16.304;2023-12-28T07:30:20;31.92;;;10.05;;
69854;SDS011;57146;48.140;16.304;2023-12-28T07:32:47;36.57;;;9.63;;
69854;SDS011;57146;48.140;16.304;2023-12-28T07:35:14;39.95;;;10.75;;
69854;SDS011;57146;48.140;16.304;2023-12-28T07:37:41;36.95;;;9.82;;
69854;SDS011;57146;48.140;16.304;2023-12-28T07:40:07;34.75;;;9.70;;
69854;SDS011;57146;48.140;16.304;2023-12-28T07:42:34;32.45;;;9.05;;
69854;SDS011;57146;48.140;16.304;2023-12-28T07:45:01;36.33;;;9.00;;
69854;SDS011;57146;48.140;16.304;2023-12-28T07:47:28;36.70;;;9.55;;
69854;SDS011;57146;48.140;16.304;2023-12-28T07:49:56;32.35;;;9.85;;
69854;SDS011;57146;48.140;16.304;2023-12-28T07:52:23;44.25;;;9.85;;
69854;SDS011;57146;48.140;16.304;2023-12-28T07:54:49;37.33;;;10.07;;
69854;SDS011;57146;48.140;16.304;2023-12-28T07:57:17;36.63;;;10.63;;
69854;SDS011;57146;48.140;16.304;2023-12-28T07:59:44;39.10;;;10.73;;
69854;SDS011;57146;48.140;16.304;2023-12-28T08:02:11;42.25;;;11.15;;
69854;SDS011;57146;48.140;16.304;2023-12-28T08:04:38;47.42;;;11.88;;
69854;SDS011;57146;48.140;16.304;2023-12-28T08:07:05;40.20;;;11.40;;
69854;SDS011;57146;48.140;16.304;2023-12-28T08:09:32;60.37;;;14.03;;
69854;SDS011;57146;48.140;16.304;2023-12-28T08:11:59;62.92;;;13.23;;
69854;SDS011;57146;48.140;16.304;2023-12-28T08:14:26;50.03;;;12.15;;
69854;SDS011;57146;48.140;16.304;2023-12-28T08:16:52;46.83;;;13.25;;
69854;SDS011;57146;48.140;16.304;2023-12-28T08:19:19;57.83;;;12.35;;
69854;SDS011;57146;48.140;16.304;2023-12-28T08:21:46;48.10;;;11.50;;
69854;SDS011;57146;48.140;16.304;2023-12-28T08:24:13;48.00;;;11.63;;
69854;SDS011;57146;48.140;16.304;2023-12-28T08:26:40;48.08;;;11.52;;
69854;SDS011;57146;48.140;16.304;2023-12-28T08:29:07;45.85;;;11.25;;
69854;SDS011;57146;48.140;16.304;2023-12-28T08:31:34;50.67;;;11.15;;
69854;SDS011;57146;48.140;16.304;2023-12-28T08:34:01;43.13;;;10.40;;
69854;SDS011;57146;48.140;16.304;2023-12-28T08:36:30;43.00;;;10.95;;
69854;SDS011;57146;48.140;16.304;2023-12-28T08:38:57;37.17;;;10.95;;
69854;SDS011;57146;48.140;16.304;2023-12-28T08:41:24;36.42;;;9.73;;
69854;SDS011;57146;48.140;16.304;2023-12-28T08:43:50;36.95;;;9.77;;
69854;SDS011;57146;48.140;16.304;2023-12-28T08:46:17;36.73;;;10.50;;
69854;SDS011;57146;48.140;16.304;2023-12-28T08:48:44;36.20;;;10.43;;
69854;SDS011;57146;48.140;16.304;2023-12-28T08:51:11;37.35;;;10.38;;
69854;SDS011;57146;48.140;16.304;2023-12-28T08:53:38;37.25;;;10.40;;
69854;SDS011;57146;48.140;16.304;2023-12-28T08:56:17;40.67;;;11.05;;
69854;SDS011;57146;48.140;16.304;2023-12-28T08:58:47;41.53;;;11.87;;
69854;SDS011;57146;48.140;16.304;2023-12-28T09:01:22;40.22;;;11.20;;
69854;SDS011;57146;48.140;16.304;2023-12-28T09:03:51;34.42;;;10.32;;
69854;SDS011;57146;48.140;16.304;2023-12-28T09:06:19;36.47;;;10.57;;
69854;SDS011;57146;48.140;16.304;2023-12-28T09:08:48;30.55;;;10.32;;
69854;SDS011;57146;48.140;16.304;2023-12-28T09:11:16;33.90;;;9.93;;
69854;SDS011;57146;48.140;16.304;2023-12-28T09:13:43;33.78;;;10.18;;
69854;SDS011;57146;48.140;16.304;2023-12-28T09:16:11;37.13;;;10.82;;
69854;SDS011;57146;48.140;16.304;2023-12-28T09:18:40;30.38;;;9.93;;
69854;SDS011;57146;48.140;16.304;2023-12-28T09:21:08;35.60;;;10.30;;
69854;SDS011;57146;48.140;16.304;2023-12-28T09:23:36;30.07;;;9.83;;
69854;SDS011;57146;48.140;16.304;2023-12-28T09:26:03;32.45;;;9.95;;
69854;SDS011;57146;48.140;16.304;2023-12-28T09:28:32;32.42;;;9.48;;
69854;SDS011;57146;48.140;16.304;2023-12-28T09:31:00;28.85;;;9.35;;
69854;SDS011;57146;48.140;16.304;2023-12-28T09:33:29;29.75;;;8.75;;
69854;SDS011;57146;48.140;16.304;2023-12-28T09:35:56;29.67;;;8.90;;
69854;SDS011;57146;48.140;16.304;2023-12-28T09:38:22;29.23;;;9.13;;
69854;SDS011;57146;48.140;16.304;2023-12-28T09:40:52;28.17;;;9.00;;
69854;SDS011;57146;48.140;16.304;2023-12-28T09:45:47;31.08;;;10.25;;
69854;SDS011;57146;48.140;16.304;2023-12-28T09:48:18;33.37;;;9.67;;
69854;SDS011;57146;48.140;16.304;2023-12-28T09:50:49;31.40;;;10.57;;
69854;SDS011;57146;48.140;16.304;2023-12-28T09:53:17;28.85;;;9.35;;
69854;SDS011;57146;48.140;16.304;2023-12-28T09:55:44;30.38;;;9.25;;
69854;SDS011;57146;48.140;16.304;2023-12-28T09:58:12;30.17;;;9.23;;
69854;SDS011;57146;48.140;16.304;2023-12-28T10:00:46;30.37;;;9.23;;
69854;SDS011;57146;48.140;16.304;2023-12-28T10:03:16;31.90;;;9.35;;
69854;SDS011;57146;48.140;16.304;2023-12-28T10:05:44;29.00;;;9.70;;
69854;SDS011;57146;48.140;16.304;2023-12-28T10:08:13;30.73;;;9.00;;
69854;SDS011;57146;48.140;16.304;2023-12-28T10:10:43;32.53;;;10.00;;
69854;SDS011;57146;48.140;16.304;2023-12-28T10:13:11;32.60;;;9.30;;
69854;SDS011;57146;48.140;16.304;2023-12-28T10:15:38;31.40;;;10.10;;
69854;SDS011;57146;48.140;16.304;2023-12-28T10:18:05;28.13;;;9.27;;
69854;SDS011;57146;48.140;16.304;2023-12-28T10:20:32;28.20;;;9.27;;
69854;SDS011;57146;48.140;16.304;2023-12-28T10:23:00;33.08;;;9.73;;
69854;SDS011;57146;48.140;16.304;2023-12-28T10:25:28;29.40;;;8.40;;
69854;SDS011;57146;48.140;16.304;2023-12-28T10:27:56;28.15;;;9.00;;
69854;SDS011;57146;48.140;16.304;2023-12-28T10:30:23;32.03;;;10.10;;
69854;SDS011;57146;48.140;16.304;2023-12-28T10:32:51;31.88;;;9.15;;
69854;SDS011;57146;48.140;16.304;2023-12-28T10:35:18;31.35;;;10.00;;
69854;SDS011;57146;48.140;16.304;2023-12-28T10:37:46;29.67;;;9.40;;
69854;SDS011;57146;48.140;16.304;2023-12-28T10:40:16;31.35;;;9.15;;
69854;SDS011;57146;48.140;16.304;2023-12-28T10:42:51;28.52;;;9.07;;
69854;SDS011;57146;48.140;16.304;2023-12-28T10:45:22;34.53;;;10.07;;
69854;SDS011;57146;48.140;16.304;2023-12-28T10:48:05;31.60;;;9.48;;
69854;SDS011;57146;48.140;16.304;2023-12-28T10:53:15;29.60;;;8.75;;
69854;SDS011;57146;48.140;16.304;2023-12-28T10:55:53;28.23;;;8.68;;
69854;SDS011;57146;48.140;16.304;2023-12-28T10:58:45;29.15;;;9.02;;
69854;SDS011;57146;48.140;16.304;2023-12-28T11:01:22;29.05;;;8.98;;
69854;SDS011;57146;48.140;16.304;2023-12-28T11:03:58;24.90;;;8.03;;
69854;SDS011;57146;48.140;16.304;2023-12-28T11:06:34;29.02;;;8.40;;
69854;SDS011;57146;48.140;16.304;2023-12-28T11:09:01;28.98;;;8.88;;
69854;SDS011;57146;48.140;16.304;2023-12-28T11:11:28;28.23;;;8.80;;
69854;SDS011;57146;48.140;16.304;2023-12-28T11:13:57;28.17;;;8.75;;
69854;SDS011;57146;48.140;16.304;2023-12-28T11:16:26;28.40;;;8.97;;
69854;SDS011;57146;48.140;16.304;2023-12-28T11:18:55;30.73;;;9.38;;
69854;SDS011;57146;48.140;16.304;2023-12-28T11:21:23;26.77;;;8.68;;
69854;SDS011;57146;48.140;16.304;2023-12-28T11:23:51;30.10;;;9.20;;
69854;SDS011;57146;48.140;16.304;2023-12-28T11:26:20;28.70;;;8.98;;
69854;SDS011;57146;48.140;16.304;2023-12-28T11:28:48;25.83;;;8.67;;
69854;SDS011;57146;48.140;16.304;2023-12-28T11:31:17;26.70;;;8.18;;
69854;SDS011;57146;48.140;16.304;2023-12-28T11:33:45;26.83;;;8.40;;
69854;SDS011;57146;48.140;16.304;2023-12-28T11:39:19;21.05;;;7.22;;
69854;SDS011;57146;48.140;16.304;2023-12-28T11:41:58;23.90;;;7.53;;
69854;SDS011;57146;48.140;16.304;2023-12-28T11:45:05;24.92;;;8.77;;
69854;SDS011;57146;48.140;16.304;2023-12-28T11:47:23;24.17;;;8.48;;
69854;SDS011;57146;48.140;16.304;2023-12-28T11:49:51;23.30;;;7.82;;
69854;SDS011;57146;48.140;16.304;2023-12-28T11:52:25;26.10;;;8.02;;
69854;SDS011;57146;48.140;16.304;2023-12-28T11:54:53;30.83;;;8.23;;
69854;SDS011;57146;48.140;16.304;2023-12-28T11:57:21;27.15;;;8.23;;
69854;SDS011;57146;48.140;16.304;2023-12-28T11:59:58;25.33;;;8.32;;
69854;SDS011;57146;48.140;16.304;2023-12-28T12:02:26;25.10;;;8.32;;
69854;SDS011;57146;48.140;16.304;2023-12-28T12:04:54;26.63;;;8.15;;
69854;SDS011;57146;48.140;16.304;2023-12-28T12:07:22;23.83;;;7.90;;
69854;SDS011;57146;48.140;16.304;2023-12-28T12:09:48;26.25;;;8.88;;
69854;SDS011;57146;48.140;16.304;2023-12-28T12:12:15;24.80;;;8.68;;
69854;SDS011;57146;48.140;16.304;2023-12-28T12:14:43;24.00;;;8.43;;
69854;SDS011;57146;48.140;16.304;2023-12-28T12:17:10;23.70;;;8.35;;
69854;SDS011;57146;48.140;16.304;2023-12-28T12:19:37;25.23;;;7.90;;
69854;SDS011;57146;48.140;16.304;2023-12-28T12:22:05;20.30;;;7.55;;
69854;SDS011;57146;48.140;16.304;2023-12-28T12:24:32;21.92;;;7.55;;
69854;SDS011;57146;48.140;16.304;2023-12-28T12:27:00;23.42;;;8.30;;
69854;SDS011;57146;48.140;16.304;2023-12-28T12:29:29;23.52;;;8.05;;
69854;SDS011;57146;48.140;16.304;2023-12-28T12:31:56;20.77;;;6.67;;
69854;SDS011;57146;48.140;16.304;2023-12-28T12:34:23;23.33;;;7.70;;
69854;SDS011;57146;48.140;16.304;2023-12-28T12:36:51;24.17;;;7.82;;
69854;SDS011;57146;48.140;16.304;2023-12-28T12:39:18;23.08;;;8.25;;
69854;SDS011;57146;48.140;16.304;2023-12-28T12:41:46;22.08;;;7.43;;
69854;SDS011;57146;48.140;16.304;2023-12-28T12:44:13;21.83;;;7.90;;
69854;SDS011;57146;48.140;16.304;2023-12-28T12:46:39;21.90;;;7.68;;
69854;SDS011;57146;48.140;16.304;2023-12-28T12:49:06;23.60;;;8.60;;
69854;SDS011;57146;48.140;16.304;2023-12-28T12:51:33;23.33;;;8.40;;
69854;SDS011;57146;48.140;16.304;2023-12-28T12:54:00;24.30;;;8.98;;
69854;SDS011;57146;48.140;16.304;2023-12-28T12:56:53;25.17;;;8.07;;
69854;SDS011;57146;48.140;16.304;2023-12-28T12:59:21;20.65;;;7.47;;
69854;SDS011;57146;48.140;16.304;2023-12-28T13:01:47;19.48;;;6.93;;
69854;SDS011;57146;48.140;16.304;2023-12-28T13:04:18;20.08;;;7.13;;
69854;SDS011;57146;48.140;16.304;2023-12-28T13:06:46;17.75;;;6.75;;
69854;SDS011;57146;48.140;16.304;2023-12-28T13:09:13;21.77;;;7.60;;
69854;SDS011;57146;48.140;16.304;2023-12-28T13:11:40;20.77;;;6.97;;
69854;SDS011;57146;48.140;16.304;2023-12-28T13:14:07;18.90;;;6.78;;
69854;SDS011;57146;48.140;16.304;2023-12-28T13:16:33;21.08;;;7.20;;
69854;SDS011;57146;48.140;16.304;2023-12-28T13:19:00;20.90;;;7.07;;
69854;SDS011;57146;48.140;16.304;2023-12-28T13:21:27;21.27;;;7.03;;
69854;SDS011;57146;48.140;16.304;2023-12-28T13:23:54;21.67;;;7.18;;
69854;SDS011;57146;48.140;16.304;2023-12-28T13:26:21;23.33;;;7.75;;
69854;SDS011;57146;48.140;16.304;2023-12-28T13:28:48;21.63;;;7.53;;
69854;SDS011;57146;48.140;16.304;2023-12-28T13:31:14;22.98;;;7.90;;
69854;SDS011;57146;48.140;16.304;2023-12-28T13:33:42;20.40;;;7.30;;
69854;SDS011;57146;48.140;16.304;2023-12-28T13:36:09;22.40;;;7.40;;
69854;SDS011;57146;48.140;16.304;2023-12-28T13:38:36;24.83;;;8.52;;
69854;SDS011;57146;48.140;16.304;2023-12-28T13:41:03;23.50;;;8.38;;
69854;SDS011;57146;48.140;16.304;2023-12-28T13:43:29;24.95;;;8.30;;
69854;SDS011;57146;48.140;16.304;2023-12-28T13:45:56;24.30;;;8.93;;
69854;SDS011;57146;48.140;16.304;2023-12-28T13:48:23;25.15;;;8.30;;
69854;SDS011;57146;48.140;16.304;2023-12-28T13:50:50;22.98;;;8.77;;
69854;SDS011;57146;48.140;16.304;2023-12-28T13:53:17;25.85;;;9.10;;
69854;SDS011;57146;48.140;16.304;2023-12-28T13:55:44;24.50;;;9.05;;
69854;SDS011;57146;48.140;16.304;2023-12-28T13:58:11;27.73;;;9.60;;
69854;SDS011;57146;48.140;16.304;2023-12-28T14:00:39;27.80;;;9.00;;
69854;SDS011;57146;48.140;16.304;2023-12-28T14:03:06;23.20;;;8.68;;
69854;SDS011;57146;48.140;16.304;2023-12-28T14:05:33;25.20;;;9.73;;
69854;SDS011;57146;48.140;16.304;2023-12-28T14:08:02;27.75;;;9.95;;
69854;SDS011;57146;48.140;16.304;2023-12-28T14:10:29;29.03;;;10.20;;
69854;SDS011;57146;48.140;16.304;2023-12-28T14:12:56;26.98;;;9.48;;
69854;SDS011;57146;48.140;16.304;2023-12-28T14:15:23;28.08;;;10.20;;
69854;SDS011;57146;48.140;16.304;2023-12-28T14:17:50;29.50;;;11.20;;
69854;SDS011;57146;48.140;16.304;2023-12-28T14:20:17;29.00;;;10.43;;
69854;SDS011;57146;48.140;16.304;2023-12-28T14:22:44;29.97;;;10.47;;
69854;SDS011;57146;48.140;16.304;2023-12-28T14:25:11;28.05;;;10.30;;
69854;SDS011;57146;48.140;16.304;2023-12-28T14:27:39;31.15;;;10.38;;
69854;SDS011;57146;48.140;16.304;2023-12-28T14:30:06;28.45;;;10.95;;
69854;SDS011;57146;48.140;16.304;2023-12-28T14:32:34;32.40;;;11.20;;
69854;SDS011;57146;48.140;16.304;2023-12-28T14:35:01;30.23;;;11.50;;